LIBN/LCC METAR and TAF weather

Enter ICAO airport designator
Station Type Date Time Source
LIBN METAR 2022/01/29 00:55 UTC NOAA

LIBN 290055Z 34007KT 9999 FEW020 07/05 Q1021


Station Type Date Time Source
LIBN Decoded METAR 2022/01/29 00:55 UTC NOAA

Lecce, Italy (LIBN) 40-14N 018-09E 61M
Jan 28, 2022 - 07:55 PM EST / 2022.01.29 0055 UTC
Wind: from the NNW (340 degrees) at 8 MPH (7 KT):0
Visibility: greater than 7 mile(s):0
Sky conditions: mostly clear
Temperature: 44 F (7 C)
Dew Point: 41 F (5 C)
Relative Humidity: 87%
Pressure (altimeter): 30.15 in. Hg (1021 hPa)
ob: LIBN 290055Z 34007KT 9999 FEW020 07/05 Q1021
cycle: 1

Station Type Date Time Source
LIBN TAF 2021/12/14 12:24 UTC NOAA

TAF TAF LIBN 141100Z 1412/1424 35012KT 9999 SCT030
TEMPO 1412/1414 36015G25KT

Example: see airport list